Weather at Vertientes Airport

Public forecast

Using degrees Celsius for public forecast. Weather courtesy of forecast.io.

Closest aviation weather report (METAR) to Vertientes Airport

Closest report is Ignacio Agramonte International Airport, 18.5 nm (34.3 km) NE. Retrieved 2020/09/23 00:05 UTC (2 minutes ago):

MUCM 230005Z AUTO 03005KT 26/24 Q1012

Closest aviation forecast (TAF) to Vertientes Airport

Forecast is more than 6 hours old.

Closest forecast is Ignacio Agramonte International Airport, 18.5 nm (34.3 km) NE. Retrieved 2020/09/22 18:03 UTC (6 hours ago):

TAF TAF MUCM 221700Z 2218/2318 03008KT 9000 SCT020 BKN060 TEMPO 2218/2224 VRB10KT 3000 SHRA SCT018CB BKN020 BECMG 2301/2303 VRB03KT BECMG 2315/2317 09010KT